Current Weather

Jubail

Jubail, Saudi Arabia (OEJB)

Report from: Tuesday, August 16, 2022 9:00 AM +03
Current time: Tuesday, August 16, 2022 9:51 AM +03

Nearby weather
Weather history
Weather forecast

Temperature38.0°C (100.4°F)
Heat index42.4°C (108.2°F)
Dew point21.0°C (69.8°F)
Winds 8 kts (4.1 m/s, 9.2 mph) Northeast (40°)
Clouds Sky clear
Altimeter29.50 in.Hg (999 mB)
Relative humidity38 %
Density altitude3,407 ft. (1,039 m)
Remarks Fully automated report
Ceiling and visibility OK
No significant changes expected in the next two hours
Flight conditions Visual Meteorological Conditions
Raw dataOEJB 160600Z AUTO 04008KT CAVOK 38/21 Q0999 NOSIG
An error has occurred. This application may no longer respond until reloaded. Reload 🗙